Time;durP1;ratioP1;P1;durP2;ratioP2;P2;SDS_P1;SDS_P2;PMS_P1;PMS_P2;Temp;Humidity;BMP_temperature;BMP_pressure;BME280_temperature;BME280_humidity;BME280_pressure;Samples;Min_cycle;Max_cycle;Signal;HPM_P1;HPM_P2
2022/11/21 00:00:57;;;;;;;9.23;3.37;;;8.70;99.90;;;;;;5061266;28;20169;-83
2022/11/21 00:03:24;;;;;;;10.67;3.80;;;8.60;99.90;;;;;;5059780;28;20343;-83
2022/11/21 00:05:50;;;;;;;8.43;3.80;;;8.60;99.90;;;;;;5042068;28;20174;-83
2022/11/21 00:08:20;;;;;;;8.67;3.63;;;8.60;99.90;;;;;;5061748;28;20173;-83
2022/11/21 00:10:47;;;;;;;8.60;3.53;;;8.50;99.90;;;;;;5061808;28;20177;-85
2022/11/21 00:13:15;;;;;;;10.17;3.53;;;8.40;99.90;;;;;;5061071;28;20228;-84
2022/11/21 00:15:42;;;;;;;9.43;4.10;;;8.30;99.90;;;;;;5060601;28;20240;-84
2022/11/21 00:18:10;;;;;;;9.57;3.80;;;8.30;99.90;;;;;;5059096;28;20689;-84
2022/11/21 00:20:43;;;;;;;8.93;3.60;;;8.10;99.90;;;;;;5025724;28;20181;-82
2022/11/21 00:23:09;;;;;;;7.87;3.50;;;8.20;99.90;;;;;;5059554;28;20172;-84
2022/11/21 00:25:36;;;;;;;9.80;3.57;;;8.30;99.90;;;;;;5056997;28;20284;-83
2022/11/21 00:28:03;;;;;;;10.20;4.20;;;8.20;99.90;;;;;;5058030;28;20176;-84
2022/11/21 00:30:29;;;;;;;9.77;3.70;;;8.20;99.90;;;;;;5040915;28;20216;-83
2022/11/21 00:32:54;;;;;;;8.70;3.57;;;8.20;99.90;;;;;;5056913;28;20234;-86
2022/11/21 00:35:20;;;;;;;8.97;3.57;;;8.10;99.90;;;;;;5060522;28;20215;-84
2022/11/21 00:37:47;;;;;;;7.27;3.47;;;8.00;99.90;;;;;;5060804;28;20204;-82
2022/11/21 00:40:14;;;;;;;10.07;3.50;;;8.00;99.90;;;;;;5058982;28;20276;-83
2022/11/21 00:43:00;;;;;;;7.57;3.40;;;8.00;99.90;;;;;;5062276;28;20267;-82
2022/11/21 00:45:28;;;;;;;9.30;3.23;;;8.10;99.90;;;;;;5074227;28;20165;-82
2022/11/21 00:47:58;;;;;;;10.50;3.30;;;8.00;99.90;;;;;;5055534;28;20173;-82
2022/11/21 00:50:26;;;;;;;11.07;3.73;;;8.20;99.90;;;;;;5076880;28;20167;-83
2022/11/21 00:52:55;;;;;;;8.90;3.63;;;8.10;99.90;;;;;;5064570;28;20185;-82
2022/11/21 00:55:22;;;;;;;9.97;3.90;;;8.00;99.90;;;;;;5075116;28;20189;-79
2022/11/21 00:57:47;;;;;;;8.37;3.43;;;8.10;99.90;;;;;;5058753;28;20740;-81
2022/11/21 01:00:14;;;;;;;9.07;3.10;;;8.20;99.90;;;;;;5056590;28;20291;-81
2022/11/21 01:02:43;;;;;;;9.73;3.33;;;8.30;99.90;;;;;;5052185;28;20169;-81
2022/11/21 01:05:11;;;;;;;8.33;3.00;;;8.30;99.90;;;;;;5051726;28;20672;-82
2022/11/21 01:07:36;;;;;;;7.70;3.13;;;8.40;99.90;;;;;;5053779;28;20261;-83
2022/11/21 01:10:02;;;;;;;9.17;3.40;;;8.30;99.90;;;;;;5056837;28;20200;-83
2022/11/21 01:12:28;;;;;;;10.30;3.50;;;8.30;99.90;;;;;;5057856;28;20271;-83
2022/11/21 01:14:54;;;;;;;7.37;3.40;;;8.40;99.90;;;;;;5064368;28;20233;-81
2022/11/21 01:17:19;;;;;;;9.63;3.87;;;8.20;99.90;;;;;;5075886;28;20177;-78
2022/11/21 01:19:45;;;;;;;10.47;3.10;;;8.10;99.90;;;;;;5074931;28;20192;-80
2022/11/21 01:22:11;;;;;;;8.50;3.57;;;8.00;99.90;;;;;;5075874;28;20188;-80
2022/11/21 01:24:36;;;;;;;9.43;3.20;;;8.10;99.90;;;;;;5073132;28;20196;-80
2022/11/21 01:27:02;;;;;;;10.07;3.37;;;8.10;99.90;;;;;;5074208;28;20200;-80
2022/11/21 01:29:28;;;;;;;8.90;3.40;;;8.00;99.90;;;;;;5073591;28;20177;-80
2022/11/21 01:31:54;;;;;;;10.73;3.40;;;8.00;99.90;;;;;;5060409;28;20637;-80
2022/11/21 01:34:20;;;;;;;8.30;3.00;;;8.10;99.90;;;;;;5062420;28;20175;-80
2022/11/21 01:36:47;;;;;;;7.57;3.00;;;7.90;99.90;;;;;;5058368;28;20629;-81
2022/11/21 01:39:12;;;;;;;6.83;3.10;;;7.90;99.90;;;;;;5055289;28;20251;-81
2022/11/21 01:41:42;;;;;;;6.87;2.57;;;7.80;99.90;;;;;;5056247;28;20574;-80
2022/11/21 01:44:19;;;;;;;9.40;3.07;;;8.00;99.90;;;;;;5056051;28;20211;-80
2022/11/21 01:46:45;;;;;;;7.37;3.40;;;8.00;99.90;;;;;;5038250;28;20177;-84
2022/11/21 01:49:13;;;;;;;11.27;2.80;;;7.90;99.90;;;;;;5055081;28;20169;-84
2022/11/21 01:51:47;;;;;;;7.80;3.37;;;7.90;99.90;;;;;;5055069;28;20169;-83
2022/11/21 01:54:15;;;;;;;8.77;3.67;;;8.10;99.90;;;;;;5056721;28;20171;-84
2022/11/21 01:57:03;;;;;;;8.33;3.43;;;8.10;99.90;;;;;;5042551;28;20169;-83
2022/11/21 01:59:38;;;;;;;8.67;3.40;;;8.10;99.90;;;;;;5042838;28;20233;-85
2022/11/21 02:02:07;;;;;;;8.40;3.10;;;8.20;99.90;;;;;;5051378;28;20180;-83
2022/11/21 02:04:35;;;;;;;10.00;3.50;;;8.30;99.90;;;;;;5044692;28;20268;-82
2022/11/21 02:07:04;;;;;;;10.70;3.20;;;8.20;99.90;;;;;;5063440;28;20199;-84
2022/11/21 02:09:34;;;;;;;7.80;2.80;;;8.20;99.90;;;;;;5041576;28;20176;-84
2022/11/21 02:12:12;;;;;;;10.03;3.47;;;8.20;99.90;;;;;;5044768;28;20168;-82
2022/11/21 02:14:41;;;;;;;8.77;3.20;;;8.20;99.90;;;;;;5040579;28;20743;-83
2022/11/21 02:17:09;;;;;;;9.23;3.30;;;8.20;99.90;;;;;;5046911;28;20200;-83
2022/11/21 02:19:44;;;;;;;7.70;3.13;;;8.10;99.90;;;;;;5068270;28;20208;-83
2022/11/21 02:22:38;;;;;;;9.63;3.30;;;7.90;99.90;;;;;;5096780;28;20213;-84
2022/11/21 02:25:14;;;;;;;6.73;2.67;;;7.80;99.90;;;;;;5079446;28;20149;-83
2022/11/21 02:27:41;;;;;;;6.77;3.00;;;7.70;99.90;;;;;;5056872;28;20245;-82
2022/11/21 02:30:08;;;;;;;13.03;3.20;;;7.60;99.90;;;;;;5062343;28;20171;-81
2022/11/21 02:32:45;;;;;;;7.97;2.70;;;7.60;99.90;;;;;;5076983;28;20165;-81
2022/11/21 02:35:13;;;;;;;6.20;2.43;;;7.60;99.90;;;;;;5079615;28;20199;-81
2022/11/21 02:37:39;;;;;;;9.40;3.30;;;7.70;99.90;;;;;;5046233;28;20687;-84
2022/11/21 02:40:09;;;;;;;7.10;2.57;;;7.60;99.90;;;;;;5055448;28;20184;-84
2022/11/21 02:42:48;;;;;;;10.37;3.47;;;7.50;99.90;;;;;;5054897;28;20182;-84
2022/11/21 02:45:22;;;;;;;7.47;2.70;;;7.50;99.90;;;;;;5037594;28;20267;-84
2022/11/21 02:47:51;;;;;;;8.23;2.70;;;7.50;99.90;;;;;;5037125;28;20179;-83
2022/11/21 02:50:29;;;;;;;6.40;2.67;;;7.50;99.90;;;;;;5037691;28;20176;-84
2022/11/21 02:52:55;;;;;;;9.97;2.97;;;7.50;99.90;;;;;;5037965;28;20659;-83
2022/11/21 02:55:22;;;;;;;8.33;2.47;;;7.50;99.90;;;;;;5037319;28;20168;-83
2022/11/21 02:57:48;;;;;;;8.40;2.87;;;7.70;99.90;;;;;;5054586;28;20724;-82
2022/11/21 03:00:14;;;;;;;7.27;2.60;;;7.80;99.90;;;;;;5036797;28;20220;-83
2022/11/21 03:02:40;;;;;;;7.57;2.47;;;7.60;99.90;;;;;;5054938;28;20173;-84
2022/11/21 03:05:08;;;;;;;9.17;2.77;;;7.60;99.90;;;;;;5055185;28;20310;-83
2022/11/21 03:07:33;;;;;;;6.67;2.50;;;7.50;99.90;;;;;;5054267;28;20169;-84
2022/11/21 03:09:59;;;;;;;7.27;2.30;;;7.50;99.90;;;;;;5055546;28;20191;-83
2022/11/21 03:12:25;;;;;;;6.47;2.37;;;7.40;99.90;;;;;;5056096;28;20177;-84
2022/11/21 03:14:50;;;;;;;7.03;2.27;;;7.50;99.90;;;;;;5039575;28;20687;-83
2022/11/21 03:17:16;;;;;;;5.53;2.30;;;7.50;99.90;;;;;;5054516;28;20171;-84
2022/11/21 03:19:42;;;;;;;6.27;2.60;;;7.50;99.90;;;;;;5054796;28;20173;-83
2022/11/21 03:22:08;;;;;;;6.30;2.20;;;7.60;99.90;;;;;;5036912;28;20612;-83
2022/11/21 03:24:34;;;;;;;6.17;2.20;;;7.30;99.90;;;;;;5036222;28;20176;-82
2022/11/21 03:26:59;;;;;;;7.43;2.17;;;7.40;99.90;;;;;;5055370;28;20223;-82
2022/11/21 03:29:25;;;;;;;8.70;2.77;;;7.40;99.90;;;;;;5036487;28;20259;-83
2022/11/21 03:31:51;;;;;;;6.53;2.60;;;7.20;99.90;;;;;;5036297;28;20188;-81
2022/11/21 03:34:17;;;;;;;8.33;2.00;;;7.30;99.90;;;;;;5039700;28;20175;-82
2022/11/21 03:36:42;;;;;;;10.13;2.63;;;7.50;99.90;;;;;;5038653;28;20181;-83
2022/11/21 03:39:09;;;;;;;10.07;2.37;;;7.50;99.90;;;;;;5047517;28;20656;-81
2022/11/21 03:41:35;;;;;;;5.83;2.30;;;7.50;99.90;;;;;;5051096;28;20173;-80
2022/11/21 03:44:06;;;;;;;9.93;2.80;;;7.50;99.90;;;;;;5071109;28;20585;-81
2022/11/21 03:46:34;;;;;;;9.70;2.73;;;7.70;99.90;;;;;;5067485;28;20176;-81
2022/11/21 03:49:00;;;;;;;8.50;2.47;;;7.70;99.90;;;;;;5066064;28;20173;-80
2022/11/21 03:51:28;;;;;;;8.27;2.53;;;7.70;99.90;;;;;;5058440;28;20189;-82
2022/11/21 03:53:54;;;;;;;6.70;2.40;;;7.60;99.90;;;;;;5067924;28;20172;-82
2022/11/21 03:56:20;;;;;;;5.80;2.50;;;7.70;99.90;;;;;;5066012;28;20164;-82
2022/11/21 03:58:46;;;;;;;5.63;2.10;;;7.60;99.90;;;;;;5043198;28;20705;-82
2022/11/21 04:01:12;;;;;;;8.43;2.43;;;7.50;99.90;;;;;;5049420;28;20169;-83
2022/11/21 04:03:47;;;;;;;10.07;2.27;;;7.60;99.90;;;;;;5078577;28;20209;-83
2022/11/21 04:06:16;;;;;;;4.73;2.10;;;7.40;99.90;;;;;;5077466;28;20172;-83
2022/11/21 04:08:41;;;;;;;5.57;2.40;;;7.30;99.90;;;;;;5050372;28;20241;-83
2022/11/21 04:11:36;;;;;;;9.03;2.50;;;7.40;99.90;;;;;;5062289;28;20164;-83
2022/11/21 04:14:07;;;;;;;8.73;2.77;;;7.60;99.90;;;;;;5055500;28;20664;-83
2022/11/21 04:16:33;;;;;;;8.43;2.43;;;7.70;99.90;;;;;;5038662;28;20168;-84
2022/11/21 04:18:59;;;;;;;6.67;2.43;;;7.60;99.90;;;;;;5055091;28;20664;-83
2022/11/21 04:21:28;;;;;;;5.27;2.23;;;7.50;99.90;;;;;;5037601;28;20173;-84
2022/11/21 04:23:54;;;;;;;5.67;2.37;;;7.40;99.90;;;;;;5058869;28;20198;-82
2022/11/21 04:26:20;;;;;;;9.47;3.00;;;7.40;99.90;;;;;;5053269;28;20255;-81
2022/11/21 04:28:47;;;;;;;6.30;2.53;;;7.40;99.90;;;;;;5051118;28;20173;-81
2022/11/21 04:31:12;;;;;;;5.23;2.87;;;7.40;99.90;;;;;;5051059;28;20200;-80
2022/11/21 04:33:38;;;;;;;6.27;2.57;;;7.30;99.90;;;;;;5045187;28;20208;-80
2022/11/21 04:36:05;;;;;;;5.87;2.77;;;7.40;99.90;;;;;;5053514;28;20269;-81
2022/11/21 04:38:30;;;;;;;10.50;3.03;;;7.30;99.90;;;;;;5035609;28;20212;-81
2022/11/21 04:40:56;;;;;;;6.50;2.70;;;7.30;99.90;;;;;;5057001;28;20214;-80
2022/11/21 04:43:22;;;;;;;6.30;2.70;;;7.30;99.90;;;;;;5053870;28;20251;-81
2022/11/21 04:45:52;;;;;;;7.33;2.77;;;7.30;99.90;;;;;;5048638;28;20176;-81
2022/11/21 04:48:17;;;;;;;5.90;3.10;;;7.30;99.90;;;;;;5057722;28;20169;-82
2022/11/21 04:50:46;;;;;;;7.40;3.23;;;7.30;99.90;;;;;;5058256;28;20165;-84
2022/11/21 04:53:14;;;;;;;7.83;2.83;;;7.40;99.90;;;;;;5040672;28;20223;-84
2022/11/21 04:55:40;;;;;;;7.77;2.80;;;7.40;99.90;;;;;;5041549;28;20230;-84
2022/11/21 04:58:05;;;;;;;7.33;3.10;;;7.40;99.90;;;;;;5059094;28;20204;-83
2022/11/21 05:00:31;;;;;;;7.90;3.27;;;7.40;99.90;;;;;;5063882;28;20569;-82
2022/11/21 05:03:03;;;;;;;8.73;2.80;;;7.40;99.90;;;;;;5061679;28;20176;-84
2022/11/21 05:05:28;;;;;;;7.57;3.13;;;7.30;99.90;;;;;;5042373;28;20169;-83
2022/11/21 05:07:54;;;;;;;11.37;2.90;;;7.40;99.90;;;;;;5067435;28;20152;-84
2022/11/21 05:10:20;;;;;;;9.57;2.90;;;7.30;99.90;;;;;;5061491;28;20176;-84
2022/11/21 05:15:29;;;;;;;6.47;2.60;;;7.20;99.90;;;;;;5075521;28;20163;-82
2022/11/21 05:17:58;;;;;;;6.37;3.00;;;7.30;99.90;;;;;;5073382;28;20655;-83
2022/11/21 05:20:27;;;;;;;6.53;3.03;;;7.30;99.90;;;;;;5058313;28;20188;-83
2022/11/21 05:22:53;;;;;;;6.87;2.93;;;7.10;99.90;;;;;;5039856;28;20165;-83
2022/11/21 05:25:23;;;;;;;7.00;2.80;;;7.10;99.90;;;;;;5068510;28;20172;-83
2022/11/21 05:27:56;;;;;;;11.70;3.20;;;7.10;99.90;;;;;;5064155;28;20172;-84
2022/11/21 05:30:33;;;;;;;6.63;2.43;;;7.10;99.90;;;;;;5062343;28;20216;-84
2022/11/21 05:33:00;;;;;;;7.90;2.70;;;7.00;99.90;;;;;;5062904;28;20177;-84
2022/11/21 05:35:27;;;;;;;8.37;2.80;;;7.10;99.90;;;;;;5062070;28;20188;-84
2022/11/21 05:37:57;;;;;;;8.40;3.47;;;7.10;99.90;;;;;;5059468;28;20602;-84
2022/11/21 05:40:24;;;;;;;6.90;3.17;;;7.00;99.90;;;;;;5044811;28;20169;-83
2022/11/21 05:45:34;;;;;;;7.03;2.57;;;7.00;99.90;;;;;;5065486;28;20184;-83
2022/11/21 05:48:00;;;;;;;6.00;2.80;;;6.80;99.90;;;;;;5071327;28;20165;-83
2022/11/21 05:50:26;;;;;;;7.20;2.60;;;6.60;99.90;;;;;;5054904;28;20272;-84
2022/11/21 05:52:51;;;;;;;6.30;3.00;;;6.70;99.90;;;;;;5056980;28;20181;-83
2022/11/21 05:55:17;;;;;;;8.53;3.13;;;6.60;99.90;;;;;;5037442;28;20712;-84
2022/11/21 05:57:43;;;;;;;8.87;3.47;;;6.60;99.90;;;;;;5038402;28;20204;-82
2022/11/21 06:00:09;;;;;;;6.13;2.80;;;6.50;99.90;;;;;;5037922;28;20663;-82
2022/11/21 06:05:19;;;;;;;6.37;2.77;;;6.50;99.90;;;;;;5056597;28;20184;-80
2022/11/21 06:07:46;;;;;;;6.90;2.97;;;6.40;99.90;;;;;;5038178;28;20172;-81
2022/11/21 06:10:11;;;;;;;7.30;2.93;;;6.40;99.90;;;;;;5055794;28;20169;-82
2022/11/21 06:12:37;;;;;;;6.20;2.67;;;6.30;99.90;;;;;;5038161;28;20281;-82
2022/11/21 06:15:03;;;;;;;6.50;2.97;;;6.30;99.90;;;;;;5055675;28;20172;-84
2022/11/21 06:17:28;;;;;;;9.57;3.43;;;6.30;99.90;;;;;;5055345;28;20191;-82
2022/11/21 06:19:54;;;;;;;9.27;2.80;;;6.20;99.90;;;;;;5055936;28;20633;-82
2022/11/21 06:22:20;;;;;;;9.03;3.40;;;6.10;99.90;;;;;;5038567;28;20165;-83
2022/11/21 06:24:45;;;;;;;8.47;3.77;;;6.20;99.90;;;;;;5038534;28;20705;-81
2022/11/21 06:27:11;;;;;;;7.93;3.07;;;6.10;99.90;;;;;;5037983;28;20647;-82
2022/11/21 06:29:37;;;;;;;7.10;2.93;;;5.90;99.90;;;;;;5056188;28;20380;-82
2022/11/21 06:32:02;;;;;;;12.63;3.70;;;5.80;99.90;;;;;;5038048;28;20231;-84
2022/11/21 06:34:28;;;;;;;7.93;2.87;;;5.90;99.90;;;;;;5056130;28;20181;-83
2022/11/21 06:36:54;;;;;;;5.43;2.73;;;6.10;99.90;;;;;;5056613;28;20173;-82
2022/11/21 06:39:19;;;;;;;5.80;2.23;;;6.00;99.90;;;;;;5062731;28;20205;-81
2022/11/21 06:41:49;;;;;;;9.47;2.80;;;6.00;99.90;;;;;;5043443;28;20195;-83
2022/11/21 06:44:17;;;;;;;8.43;2.53;;;6.10;99.90;;;;;;5040722;28;20209;-81
2022/11/21 06:46:42;;;;;;;6.13;2.80;;;6.00;99.90;;;;;;5059133;28;20168;-82
2022/11/21 06:49:08;;;;;;;6.40;2.80;;;6.00;99.90;;;;;;5038022;28;20189;-83
2022/11/21 06:51:34;;;;;;;8.53;2.77;;;6.00;99.90;;;;;;5038019;28;20206;-82
2022/11/21 06:54:00;;;;;;;8.70;2.87;;;6.00;99.90;;;;;;5055616;28;20185;-81
2022/11/21 06:56:28;;;;;;;8.97;3.10;;;6.00;99.90;;;;;;5055194;28;20196;-80
2022/11/21 06:58:54;;;;;;;8.90;2.93;;;5.90;99.90;;;;;;5037409;28;20211;-82
2022/11/21 07:01:21;;;;;;;9.23;3.07;;;6.00;99.90;;;;;;5054987;28;20346;-82
2022/11/21 07:03:47;;;;;;;7.47;2.93;;;5.90;99.90;;;;;;5047535;28;20261;-84
2022/11/21 07:06:12;;;;;;;9.37;3.10;;;5.90;99.90;;;;;;5074179;28;20188;-83
2022/11/21 07:08:39;;;;;;;8.93;2.93;;;5.90;99.90;;;;;;5069136;28;20191;-81
2022/11/21 07:11:10;;;;;;;6.60;3.47;;;6.00;99.90;;;;;;5079066;28;20180;-83
2022/11/21 07:13:38;;;;;;;11.67;4.33;;;6.10;99.90;;;;;;5097668;28;20145;-79
2022/11/21 07:16:13;;;;;;;8.13;3.23;;;6.10;99.90;;;;;;5099104;28;20179;-82
2022/11/21 07:18:43;;;;;;;9.00;3.10;;;6.10;99.90;;;;;;5095663;28;20268;-82
2022/11/21 07:21:22;;;;;;;8.53;3.70;;;6.10;99.90;;;;;;5077382;28;20168;-80
2022/11/21 07:24:18;;;;;;;11.37;3.60;;;6.10;99.90;;;;;;5067761;28;20189;-81
2022/11/21 07:27:12;;;;;;;10.57;3.43;;;6.10;99.90;;;;;;5078172;28;20152;-79
2022/11/21 07:29:43;;;;;;;10.07;4.07;;;6.20;99.90;;;;;;5076488;28;20216;-80
2022/11/21 07:32:09;;;;;;;11.90;3.47;;;6.20;99.90;;;;;;5055993;28;20703;-81
2022/11/21 07:34:36;;;;;;;11.07;3.60;;;6.20;99.90;;;;;;5059949;28;20192;-78
2022/11/21 07:37:02;;;;;;;11.43;3.63;;;6.30;99.90;;;;;;5057508;28;20640;-79
2022/11/21 07:39:28;;;;;;;10.70;3.60;;;6.40;99.90;;;;;;5074986;28;20204;-81
2022/11/21 07:41:54;;;;;;;10.90;3.53;;;6.40;99.90;;;;;;5056329;28;20169;-81
2022/11/21 07:44:20;;;;;;;12.67;4.30;;;6.50;99.90;;;;;;5076316;28;20215;-81
2022/11/21 07:46:45;;;;;;;10.97;4.47;;;6.60;99.90;;;;;;5074884;28;20169;-81
2022/11/21 07:49:11;;;;;;;11.23;3.90;;;6.60;99.90;;;;;;5057206;28;20179;-81
2022/11/21 07:51:38;;;;;;;11.23;4.07;;;6.60;99.90;;;;;;5074860;28;20156;-80
2022/11/21 07:54:05;;;;;;;15.13;4.27;;;6.60;99.90;;;;;;5080190;28;20257;-84
2022/11/21 07:56:30;;;;;;;10.63;4.00;;;6.70;99.90;;;;;;5076331;28;20149;-85
2022/11/21 07:58:58;;;;;;;9.50;4.20;;;6.70;99.90;;;;;;5080405;28;20218;-83
2022/11/21 08:01:51;;;;;;;14.37;4.60;;;6.70;99.90;;;;;;5081308;28;20164;-85
2022/11/21 08:04:23;;;;;;;10.67;3.70;;;6.80;99.90;;;;;;5062070;28;20180;-85
2022/11/21 08:06:48;;;;;;;10.43;4.60;;;6.70;99.90;;;;;;5088727;28;20191;-87
2022/11/21 08:09:14;;;;;;;10.33;4.43;;;6.70;99.90;;;;;;5062153;28;20637;-85
2022/11/21 08:11:40;;;;;;;9.80;4.37;;;6.70;99.90;;;;;;5076201;28;20208;-86
2022/11/21 08:14:05;;;;;;;16.00;5.20;;;6.70;99.90;;;;;;5077236;28;20173;-86
2022/11/21 08:16:31;;;;;;;14.30;5.30;;;6.70;99.90;;;;;;5076244;28;20168;-86
2022/11/21 08:19:00;;;;;;;12.37;5.30;;;6.70;99.90;;;;;;5075465;28;20196;-83
2022/11/21 08:21:26;;;;;;;11.43;5.17;;;6.80;99.90;;;;;;5082356;28;20281;-84
2022/11/21 08:23:53;;;;;;;10.30;5.00;;;6.80;99.90;;;;;;5081305;28;20148;-82
2022/11/21 08:26:19;;;;;;;13.83;5.67;;;6.80;99.90;;;;;;5056941;28;20165;-84
2022/11/21 08:28:44;;;;;;;12.63;5.30;;;6.80;99.90;;;;;;5068426;28;20229;-85
2022/11/21 08:31:10;;;;;;;8.90;5.13;;;6.90;99.90;;;;;;5080165;28;20184;-80
2022/11/21 08:33:36;;;;;;;14.60;5.30;;;7.00;99.90;;;;;;5079203;28;20285;-81
2022/11/21 08:36:06;;;;;;;11.90;5.40;;;7.10;99.90;;;;;;5078759;28;20253;-85
2022/11/21 08:38:32;;;;;;;13.00;5.43;;;7.10;99.90;;;;;;5086410;28;20223;-83
2022/11/21 08:43:42;;;;;;;13.17;5.53;;;7.20;99.90;;;;;;5090607;28;20190;-81
2022/11/21 08:46:10;;;;;;;13.43;5.07;;;7.20;99.90;;;;;;5071468;28;20176;-86
2022/11/21 08:48:36;;;;;;;14.50;5.57;;;7.30;99.90;;;;;;5088325;28;20172;-79
2022/11/21 08:51:05;;;;;;;15.67;4.80;;;7.40;99.90;;;;;;5068768;28;20155;-82
2022/11/21 08:53:38;;;;;;;11.37;4.80;;;7.30;99.90;;;;;;5094365;28;20198;-80
2022/11/21 08:56:13;;;;;;;14.10;3.80;;;7.30;99.90;;;;;;5078877;28;20156;-82
2022/11/21 08:58:46;;;;;;;7.30;3.70;;;7.30;99.90;;;;;;5094542;28;20203;-86
2022/11/21 09:01:12;;;;;;;12.37;4.07;;;7.40;99.90;;;;;;5085971;28;20165;-83
2022/11/21 09:03:43;;;;;;;8.20;4.10;;;7.50;99.90;;;;;;5064409;28;20156;-87
2022/11/21 09:06:12;;;;;;;13.07;4.53;;;7.80;99.90;;;;;;5063224;28;20181;-84
2022/11/21 09:08:39;;;;;;;10.30;3.93;;;7.80;99.90;;;;;;5068966;28;20163;-84
2022/11/21 09:11:06;;;;;;;10.90;4.03;;;7.90;99.90;;;;;;5063156;28;20179;-80
2022/11/21 09:13:34;;;;;;;12.50;4.00;;;8.00;99.90;;;;;;5079592;28;20163;-84
2022/11/21 09:18:46;;;;;;;8.63;3.77;;;8.10;98.60;;;;;;5094309;28;20290;-82
2022/11/21 09:21:20;;;;;;;12.97;4.60;;;8.20;97.80;;;;;;5097531;28;20153;-80
2022/11/21 09:23:49;;;;;;;11.27;4.63;;;8.30;96.90;;;;;;5092418;28;20191;-80
2022/11/21 09:26:28;;;;;;;11.23;3.77;;;8.30;96.50;;;;;;5094826;28;20172;-81
2022/11/21 09:28:57;;;;;;;10.13;4.77;;;8.40;96.30;;;;;;5074024;28;20179;-83
2022/11/21 09:31:22;;;;;;;10.47;4.30;;;8.60;96.00;;;;;;5072664;28;20184;-81
2022/11/21 09:33:48;;;;;;;11.40;4.43;;;8.80;95.00;;;;;;5073835;28;20275;-78
2022/11/21 09:36:14;;;;;;;11.20;3.63;;;8.70;93.70;;;;;;5081545;28;20234;-81
2022/11/21 09:38:40;;;;;;;11.33;3.87;;;8.90;92.60;;;;;;5082740;28;20192;-83
2022/11/21 09:45:16;;;;;;;6.50;3.33;;;8.90;91.30;;;;;;5095120;28;20171;-85
2022/11/21 09:47:53;;;;;;;6.43;3.40;;;8.80;88.00;;;;;;5078633;28;20198;-82
2022/11/21 09:50:24;;;;;;;8.70;3.40;;;8.70;90.40;;;;;;5075476;28;20199;-82
2022/11/21 09:53:05;;;;;;;11.57;4.07;;;8.70;90.80;;;;;;5073082;28;20656;-80
2022/11/21 09:55:57;;;;;;;7.10;3.47;;;8.70;91.30;;;;;;5059454;28;20180;-78
2022/11/21 09:58:50;;;;;;;9.07;3.60;;;8.70;91.30;;;;;;5077791;28;20200;-81
2022/11/21 10:01:27;;;;;;;8.00;4.07;;;8.80;91.70;;;;;;5096859;28;20168;-81
2022/11/21 10:03:54;;;;;;;8.63;3.63;;;9.00;90.80;;;;;;5061472;28;20184;-82
2022/11/21 10:06:30;;;;;;;7.50;4.40;;;8.90;89.00;;;;;;5092133;28;20259;-85
2022/11/21 10:09:36;;;;;;;8.30;5.80;;;9.00;90.00;;;;;;5061900;28;20180;-86
2022/11/21 10:12:38;;;;;;;6.97;4.30;;;8.80;88.80;;;;;;5061032;28;20259;-81
2022/11/21 10:15:39;;;;;;;8.00;4.90;;;8.70;90.40;;;;;;5091778;28;20176;-85
2022/11/21 10:18:54;;;;;;;7.40;5.73;;;8.50;90.80;;;;;;5100245;28;20214;-80
2022/11/21 10:21:52;;;;;;;9.17;5.73;;;8.50;92.00;;;;;;5082803;28;20168;-81
2022/11/21 10:24:52;;;;;;;12.20;6.27;;;8.60;92.00;;;;;;5099649;28;20230;-80
2022/11/21 10:27:48;;;;;;;12.03;6.47;;;8.50;92.20;;;;;;5096435;28;20236;-83
2022/11/21 10:30:33;;;;;;;12.50;7.87;;;8.30;94.00;;;;;;5098325;28;20180;-82
2022/11/21 10:33:11;;;;;;;14.20;7.73;;;8.20;96.60;;;;;;5076949;28;20192;-85
2022/11/21 10:35:56;;;;;;;14.37;8.07;;;8.20;97.30;;;;;;5078017;28;20248;-82
2022/11/21 10:38:24;;;;;;;13.53;8.43;;;8.20;97.70;;;;;;5065737;28;20286;-84
2022/11/21 10:41:28;;;;;;;15.93;10.60;;;8.30;97.70;;;;;;5098089;28;20168;-84
2022/11/21 10:47:36;;;;;;;15.27;8.67;;;8.60;97.10;;;;;;5085129;28;20160;-82
2022/11/21 10:50:25;;;;;;;15.20;8.87;;;8.70;96.10;;;;;;5083443;28;20148;-79
2022/11/21 10:56:31;;;;;;;16.10;8.43;;;8.60;96.40;;;;;;5083365;28;20318;-84
2022/11/21 10:59:12;;;;;;;14.50;7.87;;;8.60;96.90;;;;;;5075142;28;20208;-84
2022/11/21 11:01:39;;;;;;;17.10;8.10;;;8.70;96.90;;;;;;5067298;28;20172;-84
2022/11/21 11:04:17;;;;;;;16.90;9.00;;;8.80;96.90;;;;;;5069788;28;20172;-85
2022/11/21 11:06:45;;;;;;;16.73;8.37;;;8.80;96.60;;;;;;5050260;28;20169;-85
2022/11/21 11:09:29;;;;;;;16.67;9.77;;;9.00;96.30;;;;;;5083086;28;20167;-85
2022/11/21 11:13:32;;;;;;;15.83;9.70;;;9.10;95.80;;;;;;5068134;28;20177;-85
2022/11/21 11:15:24;;;;;;;17.13;8.83;;;9.00;95.50;;;;;;5080793;28;20175;-83
2022/11/21 11:18:01;;;;;;;15.47;8.90;;;9.00;96.40;;;;;;5064318;28;20168;-84
2022/11/21 11:20:36;;;;;;;15.80;8.90;;;9.10;97.10;;;;;;5063286;28;20172;-85
2022/11/21 11:23:26;;;;;;;12.10;7.93;;;9.10;97.20;;;;;;5083536;28;20222;-85
2022/11/21 11:26:02;;;;;;;13.33;7.87;;;9.20;97.40;;;;;;5058344;28;20184;-84
2022/11/21 11:28:50;;;;;;;15.97;7.43;;;9.30;96.80;;;;;;5086345;28;20168;-86
2022/11/21 11:31:18;;;;;;;13.97;7.30;;;9.30;95.90;;;;;;5085685;28;20184;-84
2022/11/21 11:33:55;;;;;;;15.30;7.43;;;9.40;96.10;;;;;;5087758;28;20255;-87
2022/11/21 11:36:31;;;;;;;11.50;6.07;;;9.40;96.70;;;;;;5084974;28;20188;-84
2022/11/21 11:38:59;;;;;;;12.97;6.87;;;9.60;96.40;;;;;;5063830;28;20200;-88
2022/11/21 11:47:29;;;;;;;11.87;6.53;;;9.60;95.40;;;;;;5082880;28;20165;-84
2022/11/21 11:47:30;;;;;;;12.23;7.53;;;9.70;94.80;;;;;;5091418;28;20178;-82
2022/11/21 11:50:21;;;;;;;12.57;6.03;;;9.60;94.50;;;;;;5091596;28;20195;-84
2022/11/21 11:53:19;;;;;;;12.90;6.43;;;9.50;96.20;;;;;;5087872;28;20208;-86
2022/11/21 11:56:17;;;;;;;12.20;6.40;;;9.50;97.40;;;;;;5082742;28;20256;-87
2022/11/21 11:59:19;;;;;;;10.43;5.87;;;9.30;98.00;;;;;;5082639;28;20257;-85
2022/11/21 12:02:37;;;;;;;12.73;5.60;;;9.50;99.20;;;;;;5067243;28;20188;-85
2022/11/21 12:05:24;;;;;;;10.23;5.73;;;9.40;98.90;;;;;;5083966;28;20173;-83
2022/11/21 12:08:29;;;;;;;12.20;6.63;;;9.40;99.90;;;;;;5097660;28;20180;-83
2022/11/21 12:14:08;;;;;;;16.63;7.07;;;9.50;99.70;;;;;;5084995;28;20306;-86
2022/11/21 12:16:55;;;;;;;12.07;6.10;;;9.50;99.90;;;;;;5083551;28;20160;-86
2022/11/21 12:19:21;;;;;;;11.73;6.57;;;9.70;99.90;;;;;;5063775;28;20204;-85
2022/11/21 12:21:54;;;;;;;15.60;5.87;;;9.60;99.80;;;;;;5088757;28;20168;-85
2022/11/21 12:24:21;;;;;;;14.00;6.07;;;9.60;99.40;;;;;;5061590;28;20168;-82
2022/11/21 12:27:39;;;;;;;11.47;5.57;;;9.60;99.90;;;;;;5088362;28;20172;-84
2022/11/21 12:30:32;;;;;;;13.47;5.60;;;9.60;99.80;;;;;;5073966;28;20172;-85
2022/11/21 12:33:18;;;;;;;14.63;5.50;;;9.80;99.60;;;;;;5134721;22;20301;-84
2022/11/21 12:35:59;;;;;;;14.30;5.60;;;9.90;99.50;;;;;;5057469;28;20192;-84
2022/11/21 12:38:59;;;;;;;14.13;5.07;;;9.90;99.10;;;;;;5040795;28;20248;-83
2022/11/21 12:44:56;;;;;;;12.50;5.80;;;9.90;99.00;;;;;;5051956;28;20612;-85
2022/11/21 12:54:36;;;;;;;16.03;5.70;;;10.10;99.40;;;;;;5236682;22;20236;-84
2022/11/21 12:58:06;;;;;;;16.97;5.60;;;10.20;98.90;;;;;;5056023;28;20186;-86
2022/11/21 13:01:23;;;;;;;16.57;5.50;;;10.20;98.20;;;;;;5053694;28;20189;-86
2022/11/21 13:04:16;;;;;;;12.13;5.33;;;10.20;98.10;;;;;;5039782;28;20867;-83
2022/11/21 13:09:35;;;;;;;17.50;5.83;;;10.20;98.50;;;;;;5065276;23;20228;-85
2022/11/21 13:12:12;;;;;;;14.37;5.70;;;10.30;98.00;;;;;;5041567;28;20170;-85
2022/11/21 13:14:50;;;;;;;11.93;5.57;;;10.30;97.40;;;;;;5035888;28;20252;-82
2022/11/21 13:17:29;;;;;;;12.10;4.67;;;10.30;97.50;;;;;;5025966;28;20169;-86
2022/11/21 13:20:13;;;;;;;11.20;5.33;;;10.10;97.40;;;;;;5046230;28;20204;-81
2022/11/21 13:22:40;;;;;;;12.30;5.20;;;10.10;99.00;;;;;;5052220;28;20161;-81
2022/11/21 13:25:09;;;;;;;10.60;5.17;;;10.10;99.50;;;;;;5045590;28;20633;-80
2022/11/21 13:27:41;;;;;;;9.83;5.03;;;10.10;99.00;;;;;;5023915;28;20177;-80
2022/11/21 13:30:07;;;;;;;7.93;4.70;;;10.00;99.10;;;;;;5058496;28;20185;-85
2022/11/21 13:32:53;;;;;;;7.37;3.97;;;10.00;99.30;;;;;;5037417;28;20606;-84
2022/11/21 13:35:19;;;;;;;9.03;4.63;;;10.00;99.30;;;;;;5044189;28;20192;-84
2022/11/21 13:37:48;;;;;;;8.93;3.80;;;10.00;98.70;;;;;;5025019;28;20182;-81
2022/11/21 13:40:29;;;;;;;10.07;3.97;;;10.00;98.90;;;;;;5020947;28;20188;-80
2022/11/21 13:43:18;;;;;;;8.73;3.50;;;10.00;99.60;;;;;;5041193;28;20192;-82
2022/11/21 13:45:44;;;;;;;8.03;3.67;;;10.00;99.20;;;;;;5041400;28;20532;-81
2022/11/21 13:48:16;;;;;;;7.83;3.83;;;10.00;98.70;;;;;;5037407;28;20269;-80
2022/11/21 13:51:17;;;;;;;8.90;4.47;;;10.00;98.10;;;;;;5021637;28;20521;-83
2022/11/21 13:54:21;;;;;;;10.40;4.17;;;10.30;97.70;;;;;;5041556;28;20176;-86
2022/11/21 13:57:14;;;;;;;12.40;3.23;;;10.40;96.60;;;;;;5023689;28;20177;-84
2022/11/21 14:00:06;;;;;;;11.10;4.23;;;10.50;95.70;;;;;;5041989;28;20233;-86
2022/11/21 14:03:03;;;;;;;7.80;3.87;;;10.40;95.20;;;;;;5024330;28;20188;-85
2022/11/21 14:05:31;;;;;;;9.97;3.40;;;10.50;95.20;;;;;;5039988;28;20165;-85